Latest Weather Observations for Hobart Airport

IDT60901

Issued at 1:31 pm EDT Thursday 23 February 2017 (issued every 10 minutes, with the page automatically refreshed every 10 minutes)

About weather observations | Map of Hobart area stations | Latest observations for Hobart area | Other Formats
Station Details ID: 094008 Name: HOBART AIRPORT Lat: -42.83 Lon: 147.50 Height: 4.0 m
Data from the previous 72 hours. | See also: Recent months at Hobart Airport
Date/Time
EDT
Temp
°C
App
Temp
°C
Dew
Point
°C
Rel
Hum
%
Delta-T
°C
Wind Press
QNH
hPa
Press
MSL
hPa
Rain since
9am
mm
Dir  Spd
km/h
Gust
km/h
Spd
kts
Gust
kts
23/01:00pm 25.4 19.3 8.3 33 9.2 WNW 30 43 16 23 1010.2 1010.1 0.0
23/12:30pm 25.2 19.0 7.7 32 9.3 WNW 30 43 16 23 1009.9 1009.8 0.0
23/12:00pm 24.4 18.2 7.8 34 8.8 WNW 30 43 16 23 1009.9 1009.8 0.0
23/11:30am 24.0 18.1 7.4 34 8.7 NW 28 41 15 22 1009.9 1009.8 0.0
23/11:00am 22.8 16.5 7.5 37 8.0 NW 30 37 16 20 1009.7 1009.6 0.0
23/10:30am 22.6 16.7 7.4 37 7.9 NW 28 37 15 20 1009.5 1009.4 0.0
23/10:00am 22.4 16.0 7.1 37 7.9 NW 30 43 16 23 1009.4 1009.3 0.0
23/09:30am 23.0 17.5 7.5 37 8.1 NW 26 35 14 19 1009.2 1009.1 0.0
23/09:00am 21.6 16.6 8.0 41 7.1 NW 24 32 13 17 1008.8 1008.7 0.0
23/08:30am 21.1 18.6 10.9 52 5.6 NNW 15 24 8 13 1008.2 1008.1 0.0
23/08:00am 20.4 17.9 11.1 55 5.1 NNW 15 20 8 11 1007.7 1007.6 0.0
23/07:30am 19.5 17.7 12.0 62 4.2 N 13 24 7 13 1007.3 1007.2 0.0
23/07:00am 18.7 16.7 11.6 63 3.9 NNW 13 19 7 10 1006.9 1006.8 0.0
23/06:30am 18.8 17.6 11.5 62 4.0 NNW 9 13 5 7 1006.4 1006.3 0.0
23/06:00am 19.8 17.4 11.3 58 4.7 N 15 20 8 11 1006.1 1006.0 0.0
23/05:30am 20.1 16.4 10.3 53 5.3 NNW 20 30 11 16 1005.6 1005.5 0.0
23/05:00am 19.0 16.6 11.4 61 4.2 NNE 15 24 8 13 1005.3 1005.2 0.0
23/04:30am 18.5 17.4 12.0 66 3.6 N 9 15 5 8 1005.7 1005.6 0.0
23/04:00am 18.7 19.5 12.4 67 3.5 CALM 0 6 0 3 1006.5 1006.4 0.0
23/03:30am 19.3 17.7 11.7 61 4.2 NNE 11 15 6 8 1006.2 1006.1 0.0
23/03:00am 18.3 17.2 12.0 66 3.5 NNE 9 15 5 8 1006.2 1006.1 0.0
23/02:30am 18.9 16.8 11.2 61 4.2 NNE 13 15 7 8 1006.6 1006.5 0.0
23/02:00am 18.4 17.4 11.1 62 4.0 NNE 7 11 4 6 1007.1 1007.0 0.0
23/01:30am 18.7 17.1 10.3 58 4.5 NNE 9 11 5 6 1007.5 1007.4 0.0
23/01:00am 19.0 17.2 9.4 53 5.1 NW 9 11 5 6 1008.1 1008.0 0.0
23/12:30am 18.9 16.3 9.5 54 5.0 N 13 17 7 9 1008.2 1008.1 0.0
23/12:00am 17.5 15.5 8.6 56 4.6 N 9 15 5 8 1008.7 1008.6 0.0
 
Date/Time
EDT
Temp
°C
App
Temp
°C
Dew
Point
°C
Rel
Hum
%
Delta-T
°C
Wind Press
QNH
hPa
Press
MSL
hPa
Rain since
9am
mm
Dir  Spd
km/h
Gust
km/h
Spd
kts
Gust
kts
22/11:30pm 17.5 14.7 8.6 56 4.6 NW 13 15 7 8 1009.2 1009.1 0.0
22/11:00pm 20.0 15.9 6.2 40 6.9 N 17 26 9 14 1009.4 1009.3 0.0
22/10:30pm 20.0 16.7 6.5 41 6.8 NNE 13 19 7 10 1009.9 1009.8 0.0
22/10:00pm 21.8 17.5 5.4 34 8.2 NNE 17 22 9 12 1009.7 1009.6 0.0
22/09:30pm 22.6 18.3 5.2 32 8.7 NNE 17 24 9 13 1009.9 1009.8 0.0
22/09:00pm 23.2 18.5 5.0 30 9.1 N 19 24 10 13 1010.1 1010.0 0.0
22/08:30pm 23.5 18.8 6.1 32 8.9 N 20 33 11 18 1009.7 1009.6 0.0
22/08:00pm 23.8 19.3 6.0 31 9.1 NNW 19 33 10 18 1009.7 1009.6 0.0
22/07:30pm 24.8 20.1 5.0 28 10.0 NNW 19 30 10 16 1009.5 1009.4 0.0
22/07:00pm 25.7 20.6 4.1 24 10.8 N 20 35 11 19 1009.2 1009.1 0.0
22/06:30pm 26.0 19.9 5.0 26 10.7 N 26 37 14 20 1009.4 1009.3 0.0
22/06:00pm 26.7 21.3 4.7 24 11.2 N 22 35 12 19 1009.4 1009.3 0.0
22/05:30pm 26.8 20.9 3.9 23 11.5 N 24 37 13 20 1009.4 1009.3 0.0
22/05:00pm 27.4 21.8 5.3 24 11.4 N 24 33 13 18 1010.0 1009.9 0.0
22/04:30pm 27.2 23.0 5.9 25 11.1 N 17 24 9 13 1010.3 1010.2 0.0
22/04:00pm 26.6 21.1 5.7 26 10.8 N 24 33 13 18 1010.8 1010.7 0.0
22/03:30pm 26.2 20.8 4.7 25 10.9 N 22 32 12 17 1011.4 1011.3 0.0
22/03:00pm 26.1 21.1 4.8 25 10.8 N 20 32 11 17 1011.9 1011.8 0.0
22/02:30pm 25.4 19.9 4.1 25 10.6 N 22 30 12 16 1012.5 1012.4 0.0
22/02:00pm 25.1 20.2 4.9 27 10.2 NNW 20 30 11 16 1012.8 1012.7 0.0
22/01:30pm 25.6 21.9 4.5 25 10.6 NNW 13 24 7 13 1013.2 1013.1 0.0
22/01:00pm 24.2 19.7 4.2 27 9.9 NW 17 28 9 15 1013.5 1013.4 0.0
22/12:30pm 24.2 19.6 5.4 29 9.5 NW 19 26 10 14 1014.1 1014.0 0.0
22/12:00pm 23.0 18.2 5.5 32 8.8 N 20 30 11 16 1014.4 1014.3 0.0
22/11:30am 20.8 17.3 8.9 46 6.3 NW 17 26 9 14 1015.2 1015.1 0.0
22/11:00am 18.6 15.3 9.5 55 4.8 NW 17 24 9 13 1015.7 1015.7 0.0
22/10:30am 17.4 14.2 9.8 61 4.0 NW 17 22 9 12 1016.2 1016.2 0.0
22/10:00am 15.6 11.7 9.6 67 3.1 NW 20 26 11 14 1016.4 1016.4 0.0
22/09:30am 14.7 11.6 10.3 75 2.3 NW 17 22 9 12 1016.6 1016.6 0.0
22/09:00am 13.6 11.2 9.9 78 1.9 NW 13 15 7 8 1016.7 1016.7 0.0
22/08:30am 12.3 9.6 10.2 87 1.1 NW 15 19 8 10 1016.9 1016.9 0.0
22/08:00am 12.0 8.8 10.0 87 1.0 NW 17 22 9 12 1016.7 1016.7 0.0
22/07:30am 11.1 9.0 9.9 92 0.6 NNW 11 15 6 8 1016.5 1016.5 0.0
22/07:00am 10.5 8.3 9.3 92 0.6 NW 11 15 6 8 1016.8 1016.8 0.0
22/06:30am 9.5 7.8 8.5 93 0.5 W 7 11 4 6 1016.7 1016.7 0.0
22/06:00am 9.8 8.2 8.8 93 0.5 NW 7 9 4 5 1016.8 1016.8 0.0
22/05:30am 8.8 6.6 8.0 95 0.4 NW 9 13 5 7 1016.8 1016.8 0.0
22/05:00am 10.0 7.3 8.8 92 0.6 NW 13 17 7 9 1016.9 1016.9 0.0
22/04:30am 9.9 6.3 8.5 91 0.7 NW 17 19 9 10 1017.3 1017.3 0.0
22/04:00am 10.3 7.2 8.9 91 0.7 NW 15 17 8 9 1017.7 1017.7 0.0
22/03:30am 10.4 7.4 9.2 92 0.6 NW 15 19 8 10 1018.0 1018.0 0.0
22/03:00am 10.3 7.6 9.1 92 0.6 NW 13 15 7 8 1018.3 1018.3 0.0
22/02:30am 10.7 8.1 9.3 91 0.7 NW 13 17 7 9 1018.5 1018.5 0.0
22/02:00am 10.2 8.2 8.8 91 0.7 WNW 9 9 5 5 1018.6 1018.6 0.0
22/01:30am 9.9 9.2 8.5 91 0.7 WNW 2 7 1 4 1019.0 1019.0 0.0
22/01:00am 10.6 10.3 8.6 87 1.0 CALM 0 0 0 0 1019.4 1019.4 0.0
22/12:30am 11.2 10.9 8.6 84 1.3 CALM 0 0 0 0 1019.7 1019.7 0.0
22/12:00am 11.8 11.6 9.0 83 1.4 CALM 0 0 0 0 1019.8 1019.8 0.0
 
Date/Time
EDT
Temp
°C
App
Temp
°C
Dew
Point
°C
Rel
Hum
%
Delta-T
°C
Wind Press
QNH
hPa
Press
MSL
hPa
Rain since
9am
mm
Dir  Spd
km/h
Gust
km/h
Spd
kts
Gust
kts
21/11:30pm 12.4 10.9 9.0 80 1.7 E 7 11 4 6 1020.1 1020.1 0.0
21/11:00pm 12.5 11.0 9.1 80 1.7 ESE 7 9 4 5 1020.1 1020.1 0.0
21/10:30pm 12.8 11.0 9.4 80 1.7 ESE 9 13 5 7 1020.3 1020.3 0.0
21/10:00pm 13.3 11.4 8.9 74 2.2 ESE 9 13 5 7 1020.4 1020.4 0.0
21/09:30pm 13.9 11.6 9.0 72 2.5 SE 11 15 6 8 1020.2 1020.2 0.0
21/09:00pm 14.5 11.4 8.8 68 2.9 SE 15 22 8 12 1019.9 1019.9 0.0
21/08:30pm 14.7 10.5 8.3 65 3.2 SSE 20 30 11 16 1019.4 1019.4 0.0
21/08:00pm 15.2 11.3 8.5 64 3.4 SE 19 28 10 15 1019.1 1019.1 0.0
21/07:30pm 15.4 10.3 9.2 66 3.2 SSE 26 33 14 18 1018.7 1018.7 0.0
21/07:00pm 15.8 10.3 9.2 65 3.4 SSE 28 33 15 18 1018.1 1018.1 0.0
21/06:30pm 16.0 10.1 9.2 64 3.5 SSE 30 35 16 19 1017.9 1017.9 0.0
21/06:00pm 17.0 11.1 9.1 59 4.1 SSE 30 35 16 19 1017.7 1017.7 0.0
21/05:30pm 17.4 12.2 8.9 57 4.4 SSE 26 35 14 19 1017.4 1017.4 0.0
21/05:00pm 18.0 12.5 7.5 50 5.3 SSE 26 32 14 17 1017.2 1017.2 0.0
21/04:30pm 19.2 14.0 7.4 46 6.0 SE 24 32 13 17 1016.9 1016.9 0.0
21/04:00pm 19.0 14.7 5.2 40 6.7 SE 17 26 9 14 1016.9 1016.9 0.0
21/03:30pm 20.6 16.0 3.9 33 8.0 SSE 17 22 9 12 1016.9 1016.9 0.0
21/03:00pm 19.9 15.8 4.3 35 7.5 SSE 15 20 8 11 1016.7 1016.7 0.0
21/02:30pm 19.7 16.0 4.6 37 7.3 ESE 13 19 7 10 1017.2 1017.2 0.0
21/02:00pm 19.1 16.6 4.5 38 7.0 NNE 7 15 4 8 1017.4 1017.4 0.0
21/01:30pm 18.4 15.6 5.2 42 6.4 WNW 9 13 5 7 1017.5 1017.5 0.0
21/01:00pm 17.5 14.9 4.1 41 6.3 NE 7 11 4 6 1017.7 1017.7 0.0
21/12:30pm 17.3 13.5 4.1 41 6.2 S 13 19 7 10 1018.0 1018.0 0.0
21/12:00pm 16.3 13.1 4.9 46 5.4 SE 11 20 6 11 1017.9 1017.9 0.0
21/11:30am 16.1 12.2 5.4 49 5.1 SE 15 19 8 10 1018.1 1018.1 0.0
21/11:00am 16.7 13.9 5.2 46 5.5 WNW 9 15 5 8 1018.1 1018.1 0.0
21/10:30am 15.6 11.5 4.2 46 5.3 NW 15 20 8 11 1017.9 1017.9 0.0
21/10:00am 15.7 13.2 4.6 47 5.2 WSW 7 13 4 7 1017.9 1017.9 0.0
21/09:30am 14.4 12.2 5.5 55 4.2 NE 6 11 3 6 1017.8 1017.8 0.0
21/09:00am 13.2 10.8 7.0 66 3.0 NW 9 13 5 7 1017.7 1017.7 4.0
21/08:30am 11.8 8.7 7.2 73 2.2 NW 13 17 7 9 1017.6 1017.6 4.0
21/08:00am 11.4 8.5 6.5 72 2.3 NW 11 15 6 8 1017.0 1017.0 4.0
21/07:30am 10.7 8.3 6.9 77 1.8 NW 9 15 5 8 1016.6 1016.6 4.0
21/07:00am 10.6 8.2 7.2 79 1.6 NW 9 11 5 6 1016.2 1016.2 4.0
21/06:30am 10.4 7.5 6.3 76 1.9 NW 11 17 6 9 1015.9 1015.9 4.0
21/06:00am 9.9 8.8 6.7 80 1.5 NW 2 9 1 5 1015.3 1015.2 4.0
21/05:30am 10.0 7.3 5.4 73 2.1 NW 9 13 5 7 1014.8 1014.7 4.0
21/05:00am 9.5 5.7 6.0 79 1.6 NW 15 17 8 9 1014.7 1014.6 4.0
21/04:30am 10.7 6.5 5.5 70 2.4 WNW 17 20 9 11 1014.4 1014.3 4.0
21/04:00am 11.1 7.4 4.4 63 3.0 WNW 13 19 7 10 1014.0 1013.9 4.0
21/03:30am 11.8 8.1 4.3 60 3.4 W 13 26 7 14 1013.9 1013.8 4.0
21/03:00am 12.0 6.9 4.0 58 3.6 WSW 20 41 11 22 1013.7 1013.6 4.0
21/02:30am 12.0 7.9 6.0 66 2.8 SW 17 24 9 13 1013.6 1013.5 4.0
21/02:00am 12.1 8.8 6.4 68 2.7 SSW 13 20 7 11 1013.5 1013.4 4.0
21/01:30am 12.4 9.5 6.5 67 2.8 S 11 13 6 7 1013.4 1013.3 4.0
21/01:00am 12.9 9.3 6.6 65 3.0 SW 15 24 8 13 1013.4 1013.3 4.0
21/12:30am 13.0 9.1 7.0 67 2.9 SW 17 28 9 15 1013.4 1013.3 4.0
21/12:00am 13.1 9.3 7.6 69 2.7 SSW 17 26 9 14 1013.3 1013.2 4.0
 
Date/Time
EDT
Temp
°C
App
Temp
°C
Dew
Point
°C
Rel
Hum
%
Delta-T
°C
Wind Press
QNH
hPa
Press
MSL
hPa
Rain since
9am
mm
Dir  Spd
km/h
Gust
km/h
Spd
kts
Gust
kts
20/11:30pm 13.2 9.0 7.5 68 2.8 SSW 19 30 10 16 1013.1 1013.0 4.0
20/11:00pm 13.3 9.6 7.8 69 2.7 SSW 17 28 9 15 1013.0 1012.9 4.0
20/10:30pm 13.3 9.7 8.5 72 2.4 SSW 17 26 9 14 1012.8 1012.7 4.0
20/10:00pm 13.4 10.3 8.8 74 2.3 SW 15 26 8 14 1012.8 1012.7 4.0
20/09:30pm 13.5 10.5 9.2 75 2.2 SSW 15 24 8 13 1012.4 1012.3 4.0
20/09:00pm 13.6 10.2 9.3 75 2.2 SSW 17 30 9 16 1011.8 1011.7 4.0
20/08:30pm 13.7 9.7 9.0 73 2.4 SSW 20 30 11 16 1011.2 1011.1 4.0
20/08:00pm 13.8 11.3 9.7 76 2.1 SSW 13 15 7 8 1011.0 1010.9 4.0
20/07:30pm 13.5 10.4 10.4 81 1.6 SSW 17 22 9 12 1010.6 1010.5 4.0
20/07:00pm 13.7 9.4 10.9 83 1.5 S 24 32 13 17 1010.2 1010.1 4.0
20/06:30pm 14.3 9.9 10.5 78 2.0 S 24 32 13 17 1009.6 1009.5 4.0
20/06:00pm 13.7 9.6 11.5 86 1.2 SSW 24 43 13 23 1009.4 1009.3 4.0
20/05:30pm 14.0 10.1 12.2 89 1.0 S 24 33 13 18 1008.8 1008.7 3.6
20/05:00pm 14.4 10.0 11.6 83 1.5 S 26 41 14 22 1008.6 1008.5 3.6
20/04:30pm 14.2 10.7 12.2 88 1.1 SSW 22 30 12 16 1008.3 1008.2 3.6
20/04:23pm 14.6 11.7 12.2 85 1.3 SSW 19 28 10 15 1008.2 1008.1 3.2
20/04:00pm 14.4 12.3 12.4 88 1.1 SSW 15 20 8 11 1008.1 1008.0 3.2
20/03:30pm 13.2 10.0 11.9 92 0.7 SSW 20 28 11 15 1008.2 1008.1 2.8
20/03:21pm 12.8 9.0 11.3 91 0.8 SSW 22 30 12 16 1008.3 1008.2 2.8
20/03:00pm 13.3 8.4 11.2 87 1.1 S 28 37 15 20 1008.3 1008.2 1.6
20/02:30pm 16.5 11.3 10.1 66 3.4 SSW 28 41 15 22 1007.9 1007.8 0.2
20/02:00pm 16.9 13.1 12.4 75 2.5 S 24 33 13 18 1007.8 1007.7 0.2

Latest Capital City Observations: Canberra | Sydney | Melbourne | Brisbane | Adelaide | Perth | Hobart | Darwin

Other Formats:

Comma delimited format used in spreadsheet applications
http://www.bom.gov.au/fwo/IDT60901/IDT60901.94975.axf

JavaScript Object Notation format (JSON) in row-major order
http://www.bom.gov.au/fwo/IDT60901/IDT60901.94975.json